Terminal Aerodrome Forecast
Issued by NWS

Home | Current Version | Previous Version | Text Only | Print | Product List | Glossary On
Versions: 1 2 3 4 5 6 7 8 9 10 11 12 13 14 15 16 17 18 19 20 21 22 23
838
FTUS43 KDLH 222336
TAFHYR
TAF
KHYR 222336Z 2300/2324 VRB03KT P6SM FEW250
     FM230200 00000KT P6SM SCT250
     FM230800 00000KT 6SM BR BKN250
      TEMPO 2308/2312 1 1/2SM BR
     FM231300 12004KT P6SM SCT250
     FM232100 13006KT P6SM VCSH SCT025 BKN050 PROB30 2321/2324 5SM
      TSRA BKN025CB=

USA.gov is the U.S. government's official web portal to all federal, state and local government web resources and services.